createdAt,value
2017-03-20T00:00:05.036Z,1006.04
2017-03-20T00:01:14.597Z,1006.04
2017-03-20T00:02:23.856Z,1006.02
2017-03-20T00:03:33.720Z,1006.02
2017-03-20T00:04:43.266Z,1006.04
2017-03-20T00:05:52.496Z,1006.01
2017-03-20T00:07:01.170Z,1006.04
2017-03-20T00:08:10.752Z,1005.95
2017-03-20T00:09:20.380Z,1006.05
2017-03-20T00:10:29.383Z,1006.04
2017-03-20T00:11:38.357Z,1005.99
2017-03-20T00:12:47.623Z,1005.99
2017-03-20T00:13:56.589Z,1005.99
2017-03-20T00:15:06.456Z,1005.99
2017-03-20T00:16:15.913Z,1006.04
2017-03-20T00:17:25.122Z,1006.03
2017-03-20T00:18:34.201Z,1006.04
2017-03-20T00:19:43.505Z,1006.03
2017-03-20T00:20:53.124Z,1006.05
2017-03-20T00:22:02.095Z,1006.01
2017-03-20T00:23:11.694Z,1006.06
2017-03-20T00:24:20.790Z,1006.09
2017-03-20T00:25:30.392Z,1006.02
2017-03-20T00:26:39.055Z,1006.1
2017-03-20T00:27:47.726Z,1006.09
2017-03-20T00:28:56.940Z,1006.07
2017-03-20T00:30:06.214Z,1006.07
2017-03-20T00:31:14.871Z,1006.08
2017-03-20T00:32:24.133Z,1006.04
2017-03-20T00:33:33.709Z,1006.07
2017-03-20T00:34:43.273Z,1006.06
2017-03-20T00:35:52.240Z,1006
2017-03-20T00:37:00.906Z,1005.99
2017-03-20T00:38:10.166Z,1005.96
2017-03-20T00:39:19.132Z,1006.01
2017-03-20T00:40:28.966Z,1005.98
2017-03-20T00:41:37.920Z,1005.96
2017-03-20T00:42:46.879Z,1005.93
2017-03-20T00:43:55.842Z,1005.92
2017-03-20T00:45:05.149Z,1005.88
2017-03-20T00:46:14.705Z,1005.85
2017-03-20T00:47:23.365Z,1005.88
2017-03-20T00:48:32.323Z,1005.96
2017-03-20T00:49:41.587Z,1005.87
2017-03-20T00:50:50.547Z,1005.82
2017-03-20T00:51:59.457Z,1005.91
2017-03-20T00:53:08.417Z,1005.84
2017-03-20T00:54:18.274Z,1005.78
2017-03-20T00:55:27.538Z,1005.9
2017-03-20T00:56:36.517Z,1005.83
2017-03-20T00:57:45.181Z,1005.87
2017-03-20T00:58:53.853Z,1005.77
2017-03-20T01:00:02.817Z,1005.77
2017-03-20T01:01:11.773Z,1005.71
2017-03-20T01:02:21.056Z,1005.75
2017-03-20T01:03:30.915Z,1005.75
2017-03-20T01:04:40.478Z,1005.78
2017-03-20T01:05:50.347Z,1005.76
2017-03-20T01:06:59.308Z,1005.74
2017-03-20T01:08:08.569Z,1005.73
2017-03-20T01:09:18.681Z,1005.78
2017-03-20T01:10:28.545Z,1005.76
2017-03-20T01:11:37.203Z,1005.77
2017-03-20T01:12:46.163Z,1005.76
2017-03-20T01:13:55.432Z,1005.69
2017-03-20T01:15:04.997Z,1005.67
2017-03-20T01:16:14.256Z,1005.69
2017-03-20T01:17:22.918Z,1005.72
2017-03-20T01:18:32.183Z,1005.65
2017-03-20T01:19:41.753Z,1005.7
2017-03-20T01:20:51.266Z,1005.64
2017-03-20T01:22:00.558Z,1005.7
2017-03-20T01:23:09.217Z,1005.76
2017-03-20T01:24:18.175Z,1005.68
2017-03-20T01:25:27.443Z,1005.74
2017-03-20T01:26:36.708Z,1005.71
2017-03-20T01:27:45.667Z,1005.72
2017-03-20T01:28:55.270Z,1005.65
2017-03-20T01:30:04.836Z,1005.76
2017-03-20T01:31:13.799Z,1005.78
2017-03-20T01:32:22.722Z,1005.82
2017-03-20T01:33:31.987Z,1005.83
2017-03-20T01:34:41.554Z,1005.84
2017-03-20T01:35:50.510Z,1005.81
2017-03-20T01:36:59.768Z,1005.79
2017-03-20T01:38:09.029Z,1005.74
2017-03-20T01:39:18.295Z,1005.82
2017-03-20T01:40:27.262Z,1005.77
2017-03-20T01:41:36.524Z,1005.83
2017-03-20T01:42:45.783Z,1005.82
2017-03-20T01:43:55.037Z,1005.81
2017-03-20T01:45:04.911Z,1005.76
2017-03-20T01:46:14.180Z,1005.74
2017-03-20T01:47:23.140Z,1005.8
2017-03-20T01:48:32.100Z,1005.79
2017-03-20T01:49:41.559Z,1005.82
2017-03-20T01:50:50.521Z,1005.78
2017-03-20T01:52:00.085Z,1005.73
2017-03-20T01:53:09.346Z,1005.77
2017-03-20T01:54:18.610Z,1005.75
2017-03-20T01:55:27.573Z,1005.73
2017-03-20T01:56:37.142Z,1005.8
2017-03-20T01:57:46.100Z,1005.7
2017-03-20T01:58:55.366Z,1005.83
2017-03-20T02:00:04.632Z,1005.74
2017-03-20T02:01:13.300Z,1005.78
2017-03-20T02:02:22.260Z,1005.74
2017-03-20T02:03:30.926Z,1005.7
2017-03-20T02:04:40.487Z,1005.74
2017-03-20T02:05:50.044Z,1005.74
2017-03-20T02:06:58.954Z,1005.76
2017-03-20T02:08:08.210Z,1005.68
2017-03-20T02:09:17.476Z,1005.66
2017-03-20T02:10:27.043Z,1005.76
2017-03-20T02:11:35.696Z,1005.73
2017-03-20T02:12:44.955Z,1005.7
2017-03-20T02:13:54.523Z,1005.67
2017-03-20T02:15:03.787Z,1005.69
2017-03-20T02:16:13.058Z,1005.69
2017-03-20T02:17:22.653Z,1005.67
2017-03-20T02:18:32.505Z,1005.7
2017-03-20T02:19:41.779Z,1005.69
2017-03-20T02:20:51.650Z,1005.72
2017-03-20T02:22:00.311Z,1005.73
2017-03-20T02:23:09.564Z,1005.66
2017-03-20T02:24:19.329Z,1005.67
2017-03-20T02:25:28.897Z,1005.72
2017-03-20T02:26:38.147Z,1005.72
2017-03-20T02:27:47.105Z,1005.73
2017-03-20T02:28:56.372Z,1005.7
2017-03-20T02:30:05.627Z,1005.71
2017-03-20T02:31:14.891Z,1005.68
2017-03-20T02:32:23.849Z,1005.74
2017-03-20T02:33:32.506Z,1005.73
2017-03-20T02:34:41.510Z,1005.72
2017-03-20T02:35:50.475Z,1005.72
2017-03-20T02:36:59.435Z,1005.69
2017-03-20T02:38:08.433Z,1005.65
2017-03-20T02:39:17.397Z,1005.75
2017-03-20T02:40:26.659Z,1005.75
2017-03-20T02:41:35.865Z,1005.73
2017-03-20T02:42:44.524Z,1005.73
2017-03-20T02:43:54.095Z,1005.68
2017-03-20T02:45:03.357Z,1005.67
2017-03-20T02:46:12.917Z,1005.66
2017-03-20T02:47:22.174Z,1005.63
2017-03-20T02:48:31.753Z,1005.64
2017-03-20T02:49:41.637Z,1005.66
2017-03-20T02:50:50.603Z,1005.69
2017-03-20T02:51:59.571Z,1005.68
2017-03-20T02:53:08.829Z,1005.65
2017-03-20T02:54:18.093Z,1005.6
2017-03-20T02:55:27.650Z,1005.63
2017-03-20T02:56:36.609Z,1005.6
2017-03-20T02:57:45.601Z,1005.59
2017-03-20T02:58:55.711Z,1005.68
2017-03-20T03:00:05.277Z,1005.75
2017-03-20T03:01:14.537Z,1005.67
2017-03-20T03:02:23.797Z,1005.65
2017-03-20T03:03:33.053Z,1005.62
2017-03-20T03:04:42.018Z,1005.67
2017-03-20T03:05:51.281Z,1005.68
2017-03-20T03:07:00.237Z,1005.59
2017-03-20T03:08:08.903Z,1005.69
2017-03-20T03:09:18.495Z,1005.65
2017-03-20T03:10:28.307Z,1005.74
2017-03-20T03:11:37.566Z,1005.7
2017-03-20T03:12:46.231Z,1005.7
2017-03-20T03:13:55.195Z,1005.69
2017-03-20T03:15:05.056Z,1005.67
2017-03-20T03:16:14.019Z,1005.7
2017-03-20T03:17:22.979Z,1005.68
2017-03-20T03:18:31.637Z,1005.68
2017-03-20T03:19:41.199Z,1005.68
2017-03-20T03:20:49.865Z,1005.7
2017-03-20T03:21:58.861Z,1005.7
2017-03-20T03:23:07.827Z,1005.7
2017-03-20T03:24:17.691Z,1005.71
2017-03-20T03:25:26.954Z,1005.68
2017-03-20T03:26:35.914Z,1005.71
2017-03-20T03:27:44.828Z,1005.68
2017-03-20T03:28:54.100Z,1005.73
2017-03-20T03:30:03.663Z,1005.71
2017-03-20T03:31:12.328Z,1005.66
2017-03-20T03:32:21.888Z,1005.68
2017-03-20T03:33:31.153Z,1005.71
2017-03-20T03:34:40.721Z,1005.66
2017-03-20T03:35:49.979Z,1005.67
2017-03-20T03:36:58.939Z,1005.64
2017-03-20T03:38:07.937Z,1005.69
2017-03-20T03:39:17.756Z,1005.66
2017-03-20T03:40:27.022Z,1005.63
2017-03-20T03:41:36.274Z,1005.57
2017-03-20T03:42:45.259Z,1005.62
2017-03-20T03:43:54.818Z,1005.62
2017-03-20T03:45:03.781Z,1005.59
2017-03-20T03:46:13.338Z,1005.61
2017-03-20T03:47:21.992Z,1005.54
2017-03-20T03:48:30.956Z,1005.59
2017-03-20T03:49:40.218Z,1005.55
2017-03-20T03:50:49.483Z,1005.53
2017-03-20T03:51:59.048Z,1005.53
2017-03-20T03:53:08.309Z,1005.48
2017-03-20T03:54:17.568Z,1005.48
2017-03-20T03:55:26.534Z,1005.52
2017-03-20T03:56:36.353Z,1005.52
2017-03-20T03:57:45.327Z,1005.54
2017-03-20T03:58:54.899Z,1005.54
2017-03-20T04:00:04.164Z,1005.51
2017-03-20T04:01:13.415Z,1005.49
2017-03-20T04:02:22.382Z,1005.51
2017-03-20T04:03:31.649Z,1005.49
2017-03-20T04:04:41.210Z,1005.49
2017-03-20T04:05:50.176Z,1005.52
2017-03-20T04:06:59.141Z,1005.51
2017-03-20T04:08:08.697Z,1005.55
2017-03-20T04:09:17.663Z,1005.46
2017-03-20T04:10:26.637Z,1005.48
2017-03-20T04:11:35.905Z,1005.41
2017-03-20T04:12:44.563Z,1005.39
2017-03-20T04:13:54.072Z,1005.37
2017-03-20T04:15:03.338Z,1005.38
2017-03-20T04:16:12.609Z,1005.39
2017-03-20T04:17:22.165Z,1005.4
2017-03-20T04:18:31.130Z,1005.42
2017-03-20T04:19:40.053Z,1005.42
2017-03-20T04:20:49.013Z,1005.37
2017-03-20T04:21:57.676Z,1005.49
2017-03-20T04:23:06.635Z,1005.41
2017-03-20T04:24:16.201Z,1005.44
2017-03-20T04:25:24.862Z,1005.43
2017-03-20T04:26:34.123Z,1005.5
2017-03-20T04:27:43.078Z,1005.41
2017-03-20T04:28:52.643Z,1005.48
2017-03-20T04:30:01.918Z,1005.5
2017-03-20T04:31:10.879Z,1005.46
2017-03-20T04:32:19.545Z,1005.56
2017-03-20T04:33:28.504Z,1005.51
2017-03-20T04:34:38.369Z,1005.52
2017-03-20T04:35:47.035Z,1005.47
2017-03-20T04:36:56.552Z,1005.45
2017-03-20T04:38:05.823Z,1005.47
2017-03-20T04:39:15.690Z,1005.43
2017-03-20T04:40:24.360Z,1005.47
2017-03-20T04:41:33.015Z,1005.51
2017-03-20T04:42:41.672Z,1005.5
2017-03-20T04:43:50.936Z,1005.53
2017-03-20T04:45:00.510Z,1005.48
2017-03-20T04:46:09.467Z,1005.43
2017-03-20T04:47:18.458Z,1005.41
2017-03-20T04:48:28.270Z,1005.44
2017-03-20T04:49:37.526Z,1005.46
2017-03-20T04:50:46.786Z,1005.5
2017-03-20T04:51:55.738Z,1005.42
2017-03-20T04:53:04.401Z,1005.5
2017-03-20T04:54:13.680Z,1005.47
2017-03-20T04:55:22.947Z,1005.5
2017-03-20T04:56:31.914Z,1005.48
2017-03-20T04:57:41.170Z,1005.5
2017-03-20T04:58:50.437Z,1005.43
2017-03-20T05:00:00.242Z,1005.49
2017-03-20T05:01:08.900Z,1005.45
2017-03-20T05:02:17.561Z,1005.42
2017-03-20T05:03:26.523Z,1005.37
2017-03-20T05:04:35.791Z,1005.36
2017-03-20T05:05:45.051Z,1005.35
2017-03-20T05:06:53.715Z,1005.29
2017-03-20T05:08:02.674Z,1005.37
2017-03-20T05:09:11.942Z,1005.3
2017-03-20T05:10:21.502Z,1005.23
2017-03-20T05:11:30.411Z,1005.27
2017-03-20T05:12:39.671Z,1005.25
2017-03-20T05:13:48.938Z,1005.25
2017-03-20T05:14:58.210Z,1005.32
2017-03-20T05:16:06.871Z,1005.33
2017-03-20T05:17:15.532Z,1005.31
2017-03-20T05:18:24.488Z,1005.28
2017-03-20T05:19:33.754Z,1005.31
2017-03-20T05:20:42.718Z,1005.3
2017-03-20T05:21:51.978Z,1005.19
2017-03-20T05:23:00.891Z,1005.29
2017-03-20T05:24:09.560Z,1005.35
2017-03-20T05:25:18.528Z,1005.35
2017-03-20T05:26:27.187Z,1005.32
2017-03-20T05:27:36.155Z,1005.36
2017-03-20T05:28:45.418Z,1005.41
2017-03-20T05:29:54.686Z,1005.41
2017-03-20T05:31:03.651Z,1005.42
2017-03-20T05:32:12.609Z,1005.37
2017-03-20T05:33:21.275Z,1005.33
2017-03-20T05:34:31.094Z,1005.32
2017-03-20T05:35:40.351Z,1005.37
2017-03-20T05:36:49.010Z,1005.36
2017-03-20T05:37:57.970Z,1005.35
2017-03-20T05:39:06.637Z,1005.38
2017-03-20T05:40:15.900Z,1005.41
2017-03-20T05:41:25.455Z,1005.51
2017-03-20T05:42:34.414Z,1005.47
2017-03-20T05:43:43.675Z,1005.51
2017-03-20T05:44:52.937Z,1005.51
2017-03-20T05:46:02.749Z,1005.44
2017-03-20T05:47:11.707Z,1005.45
2017-03-20T05:48:20.670Z,1005.48
2017-03-20T05:49:29.637Z,1005.46
2017-03-20T05:50:38.599Z,1005.46
2017-03-20T05:51:47.853Z,1005.38
2017-03-20T05:52:57.416Z,1005.51
2017-03-20T05:54:07.276Z,1005.4
2017-03-20T05:55:16.837Z,1005.42
2017-03-20T05:56:25.811Z,1005.47
2017-03-20T05:57:34.721Z,1005.42
2017-03-20T05:58:43.687Z,1005.44
2017-03-20T05:59:53.552Z,1005.4
2017-03-20T06:01:02.818Z,1005.44
2017-03-20T06:02:12.072Z,1005.47
2017-03-20T06:03:20.731Z,1005.5
2017-03-20T06:04:30.295Z,1005.44
2017-03-20T06:05:39.869Z,1005.5
2017-03-20T06:06:48.834Z,1005.49
2017-03-20T06:07:57.525Z,1005.54
2017-03-20T06:09:07.393Z,1005.57
2017-03-20T06:10:16.960Z,1005.62
2017-03-20T06:11:25.907Z,1005.63
2017-03-20T06:12:34.863Z,1005.62
2017-03-20T06:13:44.131Z,1005.66
2017-03-20T06:14:53.645Z,1005.64
2017-03-20T06:16:02.301Z,1005.66
2017-03-20T06:17:11.266Z,1005.68
2017-03-20T06:18:20.525Z,1005.7
2017-03-20T06:19:29.495Z,1005.73
2017-03-20T06:20:38.454Z,1005.69
2017-03-20T06:21:47.116Z,1005.76
2017-03-20T06:22:55.774Z,1005.76
2017-03-20T06:24:04.745Z,1005.76
2017-03-20T06:25:14.008Z,1005.82
2017-03-20T06:26:23.221Z,1005.76
2017-03-20T06:27:32.488Z,1005.76
2017-03-20T06:28:42.062Z,1005.78
2017-03-20T06:29:50.773Z,1005.73
2017-03-20T06:31:00.042Z,1005.81
2017-03-20T06:32:08.999Z,1005.8
2017-03-20T06:33:18.264Z,1005.82
2017-03-20T06:34:27.833Z,1005.77
2017-03-20T06:35:36.803Z,1005.77
2017-03-20T06:36:45.456Z,1005.7
2017-03-20T06:37:54.370Z,1005.68
2017-03-20T06:39:03.330Z,1005.78
2017-03-20T06:40:13.197Z,1005.74
2017-03-20T06:41:21.864Z,1005.69
2017-03-20T06:42:30.526Z,1005.72
2017-03-20T06:43:40.094Z,1005.74
2017-03-20T06:44:49.381Z,1005.8
2017-03-20T06:45:58.948Z,1005.8
2017-03-20T06:47:07.906Z,1005.78
2017-03-20T06:48:16.564Z,1005.76
2017-03-20T06:49:26.681Z,1005.77
2017-03-20T06:50:35.939Z,1005.75
2017-03-20T06:51:44.900Z,1005.72
2017-03-20T06:52:54.162Z,1005.72
2017-03-20T06:54:03.117Z,1005.67
2017-03-20T06:55:12.379Z,1005.64
2017-03-20T06:56:21.641Z,1005.61
2017-03-20T06:57:30.298Z,1005.68
2017-03-20T06:58:39.263Z,1005.68
2017-03-20T06:59:47.920Z,1005.63
2017-03-20T07:00:58.041Z,1005.66
2017-03-20T07:02:07.301Z,1005.6
2017-03-20T07:03:15.956Z,1005.64
2017-03-20T07:04:25.230Z,1005.71
2017-03-20T07:05:34.492Z,1005.64
2017-03-20T07:06:43.444Z,1005.73
2017-03-20T07:07:52.999Z,1005.75
2017-03-20T07:09:02.859Z,1005.65
2017-03-20T07:10:12.428Z,1005.63
2017-03-20T07:11:21.089Z,1005.67
2017-03-20T07:12:30.051Z,1005.75
2017-03-20T07:13:39.917Z,1005.64
2017-03-20T07:14:49.786Z,1005.63
2017-03-20T07:15:59.350Z,1005.65
2017-03-20T07:17:08.051Z,1005.63
2017-03-20T07:18:17.268Z,1005.65
2017-03-20T07:19:26.529Z,1005.65
2017-03-20T07:20:36.395Z,1005.61
2017-03-20T07:21:45.653Z,1005.61
2017-03-20T07:22:54.611Z,1005.61
2017-03-20T07:24:03.869Z,1005.57
2017-03-20T07:25:13.737Z,1005.59
2017-03-20T07:26:23.294Z,1005.54
2017-03-20T07:27:32.255Z,1005.54
2017-03-20T07:28:40.911Z,1005.5
2017-03-20T07:29:50.124Z,1005.58
2017-03-20T07:30:59.081Z,1005.52
2017-03-20T07:32:08.034Z,1005.53
2017-03-20T07:33:17.301Z,1005.53
2017-03-20T07:34:26.868Z,1005.52
2017-03-20T07:35:35.532Z,1005.47
2017-03-20T07:36:44.793Z,1005.46
2017-03-20T07:37:53.767Z,1005.5
2017-03-20T07:39:02.722Z,1005.49
2017-03-20T07:40:11.992Z,1005.46
2017-03-20T07:41:20.903Z,1005.48
2017-03-20T07:42:29.865Z,1005.47
2017-03-20T07:43:39.133Z,1005.46
2017-03-20T07:44:48.394Z,1005.5
2017-03-20T07:45:57.965Z,1005.38
2017-03-20T07:47:06.921Z,1005.52
2017-03-20T07:48:15.882Z,1005.47
2017-03-20T07:49:25.155Z,1005.5
2017-03-20T07:50:34.118Z,1005.52
2017-03-20T07:51:43.076Z,1005.5
2017-03-20T07:52:52.330Z,1005.46
2017-03-20T07:54:01.896Z,1005.48
2017-03-20T07:55:11.159Z,1005.46
2017-03-20T07:56:20.128Z,1005.42
2017-03-20T07:57:29.087Z,1005.36
2017-03-20T07:58:38.596Z,1005.42
2017-03-20T07:59:47.869Z,1005.44
2017-03-20T08:00:57.431Z,1005.44
2017-03-20T08:02:06.406Z,1005.44
2017-03-20T08:03:15.368Z,1005.33
2017-03-20T08:04:24.345Z,1005.37
2017-03-20T08:05:33.309Z,1005.41
2017-03-20T08:06:42.606Z,1005.4
2017-03-20T08:07:51.261Z,1005.34
2017-03-20T08:09:00.527Z,1005.4
2017-03-20T08:10:09.740Z,1005.38
2017-03-20T08:11:18.701Z,1005.35
2017-03-20T08:12:27.366Z,1005.43
2017-03-20T08:13:36.340Z,1005.4
2017-03-20T08:14:45.909Z,1005.42
2017-03-20T08:15:55.478Z,1005.45
2017-03-20T08:17:04.438Z,1005.44
2017-03-20T08:18:13.398Z,1005.36
2017-03-20T08:19:22.960Z,1005.47
2017-03-20T08:20:32.228Z,1005.48
2017-03-20T08:21:42.040Z,1005.34
2017-03-20T08:22:51.305Z,1005.39
2017-03-20T08:24:00.270Z,1005.41
2017-03-20T08:25:10.128Z,1005.47
2017-03-20T08:26:19.388Z,1005.4
2017-03-20T08:27:28.062Z,1005.42
2017-03-20T08:28:37.334Z,1005.35
2017-03-20T08:29:46.905Z,1005.37
2017-03-20T08:30:55.871Z,1005.37
2017-03-20T08:32:04.837Z,1005.34
2017-03-20T08:33:13.752Z,1005.35
2017-03-20T08:34:22.415Z,1005.32
2017-03-20T08:35:31.683Z,1005.34
2017-03-20T08:36:40.939Z,1005.34
2017-03-20T08:37:50.197Z,1005.29
2017-03-20T08:38:58.869Z,1005.27
2017-03-20T08:40:07.528Z,1005.3
2017-03-20T08:41:16.491Z,1005.18
2017-03-20T08:42:25.751Z,1005.3
2017-03-20T08:43:35.010Z,1005.33
2017-03-20T08:44:44.842Z,1005.26
2017-03-20T08:45:54.119Z,1005.32
2017-03-20T08:47:02.781Z,1005.36
2017-03-20T08:48:11.743Z,1005.22
2017-03-20T08:49:21.349Z,1005.31
2017-03-20T08:50:30.605Z,1005.37
2017-03-20T08:51:39.862Z,1005.3
2017-03-20T08:52:48.519Z,1005.4
2017-03-20T08:53:58.387Z,1005.29
2017-03-20T08:55:07.646Z,1005.26
2017-03-20T08:56:17.159Z,1005.36
2017-03-20T08:57:26.121Z,1005.32
2017-03-20T08:58:35.688Z,1005.35
2017-03-20T08:59:45.557Z,1005.37
2017-03-20T09:00:55.123Z,1005.27
2017-03-20T09:02:04.966Z,1005.31
2017-03-20T09:03:13.939Z,1005.24
2017-03-20T09:04:23.497Z,1005.33
2017-03-20T09:05:33.374Z,1005.28
2017-03-20T09:06:42.333Z,1005.36
2017-03-20T09:07:50.995Z,1005.39
2017-03-20T09:09:00.256Z,1005.34
2017-03-20T09:10:09.820Z,1005.37
2017-03-20T09:11:19.081Z,1005.35
2017-03-20T09:12:28.043Z,1005.42
2017-03-20T09:13:37.008Z,1005.43
2017-03-20T09:14:46.271Z,1005.45
2017-03-20T09:15:55.232Z,1005.43
2017-03-20T09:17:04.193Z,1005.44
2017-03-20T09:18:13.501Z,1005.45
2017-03-20T09:19:22.713Z,1005.47
2017-03-20T09:20:31.673Z,1005.4
2017-03-20T09:21:40.634Z,1005.5
2017-03-20T09:22:49.896Z,1005.39
2017-03-20T09:23:59.162Z,1005.41
2017-03-20T09:25:08.121Z,1005.45
2017-03-20T09:26:16.781Z,1005.47
2017-03-20T09:27:25.438Z,1005.49
2017-03-20T09:28:34.398Z,1005.49
2017-03-20T09:29:43.668Z,1005.45
2017-03-20T09:30:53.186Z,1005.46
2017-03-20T09:32:01.843Z,1005.44
2017-03-20T09:33:11.136Z,1005.51
2017-03-20T09:34:20.103Z,1005.53
2017-03-20T09:35:29.062Z,1005.47
2017-03-20T09:36:38.651Z,1005.45
2017-03-20T09:37:47.909Z,1005.42
2017-03-20T09:38:57.781Z,1005.46
2017-03-20T09:40:07.047Z,1005.45
2017-03-20T09:41:16.004Z,1005.47
2017-03-20T09:42:24.911Z,1005.48
2017-03-20T09:43:33.608Z,1005.41
2017-03-20T09:44:43.170Z,1005.44
2017-03-20T09:45:52.439Z,1005.48
2017-03-20T09:47:01.401Z,1005.36
2017-03-20T09:48:11.265Z,1005.39
2017-03-20T09:49:20.831Z,1005.35
2017-03-20T09:50:29.797Z,1005.38
2017-03-20T09:51:39.057Z,1005.46
2017-03-20T09:52:47.715Z,1005.46
2017-03-20T09:53:56.967Z,1005.48
2017-03-20T09:55:06.221Z,1005.41
2017-03-20T09:56:15.225Z,1005.45
2017-03-20T09:57:23.883Z,1005.37
2017-03-20T09:58:32.557Z,1005.38
2017-03-20T09:59:42.683Z,1005.39
2017-03-20T10:00:51.947Z,1005.36
2017-03-20T10:02:00.608Z,1005.34
2017-03-20T10:03:09.276Z,1005.38
2017-03-20T10:04:18.836Z,1005.37
2017-03-20T10:05:28.114Z,1005.31
2017-03-20T10:06:37.686Z,1005.41
2017-03-20T10:07:46.950Z,1005.39
2017-03-20T10:08:56.521Z,1005.38
2017-03-20T10:10:06.633Z,1005.41
2017-03-20T10:11:15.596Z,1005.34
2017-03-20T10:12:24.257Z,1005.37
2017-03-20T10:13:33.818Z,1005.32
2017-03-20T10:14:43.082Z,1005.36
2017-03-20T10:15:52.312Z,1005.3
2017-03-20T10:17:00.980Z,1005.36
2017-03-20T10:18:10.545Z,1005.32
2017-03-20T10:19:19.818Z,1005.25
2017-03-20T10:20:29.085Z,1005.27
2017-03-20T10:21:38.065Z,1005.24
2017-03-20T10:22:47.325Z,1005.34
2017-03-20T10:23:56.599Z,1005.13
2017-03-20T10:25:05.867Z,1005.19
2017-03-20T10:26:14.832Z,1005.22
2017-03-20T10:27:24.339Z,1005.15
2017-03-20T10:28:33.009Z,1005.14
2017-03-20T10:29:42.275Z,1005.2
2017-03-20T10:30:50.937Z,1005.25
2017-03-20T10:31:59.897Z,1005.09
2017-03-20T10:33:08.864Z,1005.26
2017-03-20T10:34:18.131Z,1005.27
2017-03-20T10:35:28.309Z,1005.2
2017-03-20T10:36:37.570Z,1005.25
2017-03-20T10:37:46.530Z,1005.19
2017-03-20T10:38:56.047Z,1005.27
2017-03-20T10:40:05.314Z,1005.2
2017-03-20T10:41:14.587Z,1005.13
2017-03-20T10:42:23.253Z,1005.35
2017-03-20T10:43:31.923Z,1005.27
2017-03-20T10:44:41.742Z,1005.24
2017-03-20T10:45:50.761Z,1005.14
2017-03-20T10:47:00.030Z,1005.24
2017-03-20T10:48:08.994Z,1005.36
2017-03-20T10:49:18.301Z,1005.37
2017-03-20T10:50:28.123Z,1005.28
2017-03-20T10:51:37.094Z,1005.2
2017-03-20T10:52:46.060Z,1005.17
2017-03-20T10:53:56.228Z,1005.17
2017-03-20T10:55:05.515Z,1005.36
2017-03-20T10:56:14.475Z,1005.19
2017-03-20T10:57:23.444Z,1005.08
2017-03-20T10:58:32.708Z,1005.18
2017-03-20T10:59:41.377Z,1005.22
2017-03-20T11:00:50.341Z,1005.26
2017-03-20T11:01:59.253Z,1005.14
2017-03-20T11:03:08.220Z,1005.01
2017-03-20T11:04:17.195Z,1004.93
2017-03-20T11:05:26.768Z,1005.16
2017-03-20T11:06:35.741Z,1005.09
2017-03-20T11:07:44.415Z,1004.98
2017-03-20T11:08:53.995Z,1004.97
2017-03-20T11:10:02.669Z,1005.39
2017-03-20T11:11:11.642Z,1005.32
2017-03-20T11:12:20.606Z,1005.23
2017-03-20T11:13:29.274Z,1005.17
2017-03-20T11:14:38.551Z,1004.98
2017-03-20T11:15:48.114Z,1005.07
2017-03-20T11:16:56.776Z,1005.03
2017-03-20T11:18:05.742Z,1005.09
2017-03-20T11:19:15.867Z,1005.01
2017-03-20T11:20:25.438Z,1004.97
2017-03-20T11:21:34.429Z,1004.85
2017-03-20T11:22:43.099Z,1004.83
2017-03-20T11:23:52.070Z,1004.78
2017-03-20T11:25:01.642Z,1004.79
2017-03-20T11:26:10.907Z,1004.77
2017-03-20T11:27:19.876Z,1004.65
2017-03-20T11:28:29.141Z,1004.8
2017-03-20T11:29:38.110Z,1004.77
2017-03-20T11:30:47.329Z,1004.8
2017-03-20T11:31:56.592Z,1004.87
2017-03-20T11:33:06.149Z,1004.81
2017-03-20T11:34:15.418Z,1004.74
2017-03-20T11:35:24.391Z,1004.86
2017-03-20T11:36:33.360Z,1004.85
2017-03-20T11:37:42.629Z,1004.79
2017-03-20T11:38:51.290Z,1004.78
2017-03-20T11:39:59.948Z,1004.86
2017-03-20T11:41:08.627Z,1004.82
2017-03-20T11:42:17.295Z,1004.93
2017-03-20T11:43:26.263Z,1004.74
2017-03-20T11:44:35.236Z,1004.64
2017-03-20T11:45:43.931Z,1004.75
2017-03-20T11:46:52.598Z,1004.82
2017-03-20T11:48:01.875Z,1004.8
2017-03-20T11:49:11.136Z,1004.75
2017-03-20T11:50:20.406Z,1004.74
2017-03-20T11:51:29.373Z,1004.76
2017-03-20T11:52:38.676Z,1004.68
2017-03-20T11:53:48.507Z,1004.74
2017-03-20T11:54:57.478Z,1004.71
2017-03-20T11:56:06.440Z,1004.72
2017-03-20T11:57:15.406Z,1004.69
2017-03-20T11:58:24.669Z,1004.69
2017-03-20T11:59:33.933Z,1004.65
2017-03-20T12:00:42.897Z,1004.63
2017-03-20T12:01:51.858Z,1004.7
2017-03-20T12:03:01.126Z,1004.57
2017-03-20T12:04:10.697Z,1004.63
2017-03-20T12:05:20.816Z,1004.54
2017-03-20T12:06:29.777Z,1004.65
2017-03-20T12:07:38.738Z,1004.62
2017-03-20T12:08:48.304Z,1004.64
2017-03-20T12:09:57.871Z,1004.59
2017-03-20T12:11:06.540Z,1004.64
2017-03-20T12:12:15.514Z,1004.57
2017-03-20T12:13:24.485Z,1004.6
2017-03-20T12:14:33.460Z,1004.61
2017-03-20T12:15:43.033Z,1004.48
2017-03-20T12:16:52.296Z,1004.56
2017-03-20T12:18:00.969Z,1004.56
2017-03-20T12:19:10.536Z,1004.29
2017-03-20T12:20:20.399Z,1004.34
2017-03-20T12:21:29.658Z,1004.26
2017-03-20T12:22:38.924Z,1004.37
2017-03-20T12:23:47.893Z,1004.34
2017-03-20T12:24:57.461Z,1004.28
2017-03-20T12:26:06.729Z,1004.23
2017-03-20T12:27:15.694Z,1004.25
2017-03-20T12:28:24.906Z,1004.24
2017-03-20T12:29:34.189Z,1004.16
2017-03-20T12:30:42.853Z,1004.19
2017-03-20T12:31:51.517Z,1004
2017-03-20T12:33:00.482Z,1004.12
2017-03-20T12:34:09.449Z,1004.22
2017-03-20T12:35:18.414Z,1004.12
2017-03-20T12:36:27.093Z,1004.15
2017-03-20T12:37:36.057Z,1004.11
2017-03-20T12:38:45.629Z,1004.16
2017-03-20T12:39:54.886Z,1004.11
2017-03-20T12:41:03.551Z,1004.09
2017-03-20T12:42:12.515Z,1004.1
2017-03-20T12:43:21.182Z,1004.18
2017-03-20T12:44:30.155Z,1004.13
2017-03-20T12:45:39.114Z,1004.1
2017-03-20T12:46:47.780Z,1004.09
2017-03-20T12:47:56.747Z,1004.03
2017-03-20T12:49:06.016Z,1004.12
2017-03-20T12:50:15.286Z,1004.09
2017-03-20T12:51:24.547Z,1004.08
2017-03-20T12:52:33.219Z,1004.03
2017-03-20T12:53:42.190Z,1003.88
2017-03-20T12:54:50.850Z,1004.06
2017-03-20T12:56:00.417Z,1004.01
2017-03-20T12:57:09.684Z,1004.07
2017-03-20T12:58:19.248Z,1004.08
2017-03-20T12:59:28.225Z,1004.04
2017-03-20T13:00:36.892Z,1004.05
2017-03-20T13:01:45.856Z,1003.91
2017-03-20T13:02:54.772Z,1004.03
2017-03-20T13:04:03.734Z,1003.97
2017-03-20T13:05:13.594Z,1004.02
2017-03-20T13:06:22.853Z,1004.03
2017-03-20T13:07:32.114Z,1003.94
2017-03-20T13:08:41.329Z,1003.89
2017-03-20T13:09:50.284Z,1003.9
2017-03-20T13:10:59.858Z,1003.89
2017-03-20T13:12:09.128Z,1003.9
2017-03-20T13:13:18.097Z,1003.89
2017-03-20T13:14:27.664Z,1003.89
2017-03-20T13:15:37.224Z,1003.88
2017-03-20T13:16:46.186Z,1003.92
2017-03-20T13:17:54.857Z,1003.84
2017-03-20T13:19:03.837Z,1003.8
2017-03-20T13:20:13.358Z,1003.85
2017-03-20T13:21:22.614Z,1003.78
2017-03-20T13:22:31.283Z,1003.72
2017-03-20T13:23:40.243Z,1003.71
2017-03-20T13:24:49.212Z,1003.68
2017-03-20T13:25:58.477Z,1003.68
2017-03-20T13:27:07.749Z,1003.7
2017-03-20T13:28:17.013Z,1003.63
2017-03-20T13:29:25.980Z,1003.72
2017-03-20T13:30:35.549Z,1003.71
2017-03-20T13:31:45.078Z,1003.65
2017-03-20T13:32:53.741Z,1003.71
2017-03-20T13:34:03.307Z,1003.65
2017-03-20T13:35:11.992Z,1003.59
2017-03-20T13:36:20.650Z,1003.56
2017-03-20T13:37:29.613Z,1003.72
2017-03-20T13:38:38.587Z,1003.66
2017-03-20T13:39:47.856Z,1003.45
2017-03-20T13:40:56.520Z,1003.69
2017-03-20T13:42:05.782Z,1003.6
2017-03-20T13:43:14.994Z,1003.8
2017-03-20T13:44:23.962Z,1003.58
2017-03-20T13:45:33.221Z,1003.55
2017-03-20T13:46:42.182Z,1003.66
2017-03-20T13:47:51.152Z,1003.64
2017-03-20T13:48:59.817Z,1003.65
2017-03-20T13:50:09.378Z,1003.6
2017-03-20T13:51:18.041Z,1003.73
2017-03-20T13:52:26.702Z,1003.58
2017-03-20T13:53:35.962Z,1003.61
2017-03-20T13:54:46.070Z,1003.68
2017-03-20T13:55:55.334Z,1003.66
2017-03-20T13:57:04.597Z,1003.67
2017-03-20T13:58:13.859Z,1003.68
2017-03-20T13:59:23.118Z,1003.7